Time;durP1;ratioP1;P1;durP2;ratioP2;P2;SDS_P1;SDS_P2;PMS_P1;PMS_P2;Temp;Humidity;BMP_temperature;BMP_pressure;BME280_temperature;BME280_humidity;BME280_pressure;Samples;Min_cycle;Max_cycle;Signal;HPM_P1;HPM_P2
2024/02/02 00:01:53;;;;;;;19.10;5.27;;;4.90;99.90;;;;;;5048692;28;20205;-80
2024/02/02 00:04:22;;;;;;;19.53;4.47;;;4.90;99.90;;;;;;5049191;28;20241;-80
2024/02/02 00:06:49;;;;;;;18.77;4.97;;;4.80;1.00;;;;;;5049776;28;20254;-80
2024/02/02 00:09:16;;;;;;;20.40;4.27;;;4.90;1.00;;;;;;5048014;28;20242;-80
2024/02/02 00:11:43;;;;;;;21.60;4.13;;;4.90;1.00;;;;;;5048922;28;20234;-80
2024/02/02 00:14:10;;;;;;;19.60;4.23;;;4.90;1.00;;;;;;5049090;28;20225;-80
2024/02/02 00:16:37;;;;;;;16.93;4.30;;;4.90;99.90;;;;;;5047750;28;20226;-80
2024/02/02 00:19:04;;;;;;;19.50;3.93;;;4.90;99.90;;;;;;5049342;28;20219;-80
2024/02/02 00:21:32;;;;;;;16.70;3.87;;;4.90;99.90;;;;;;5048053;28;20211;-79
2024/02/02 00:23:59;;;;;;;16.30;3.90;;;4.90;99.90;;;;;;5046118;28;20704;-80
2024/02/02 00:26:26;;;;;;;15.90;4.20;;;5.00;99.90;;;;;;5041516;28;20231;-80
2024/02/02 00:28:53;;;;;;;17.93;4.13;;;5.00;1.00;;;;;;5048103;28;20286;-80
2024/02/02 00:31:21;;;;;;;18.03;4.60;;;4.90;1.00;;;;;;5051042;28;20206;-80
2024/02/02 00:33:48;;;;;;;21.70;3.80;;;5.00;1.00;;;;;;5049811;28;20215;-80
2024/02/02 00:36:16;;;;;;;18.10;3.67;;;4.90;1.00;;;;;;5049312;28;20585;-80
2024/02/02 00:38:44;;;;;;;21.87;5.30;;;4.90;1.00;;;;;;5051148;28;20235;-80
2024/02/02 00:41:11;;;;;;;17.87;3.83;;;5.00;1.00;;;;;;5056951;28;20286;-80
2024/02/02 00:43:38;;;;;;;14.73;3.90;;;4.90;1.00;;;;;;5048158;28;20311;-80
2024/02/02 00:46:05;;;;;;;18.67;3.67;;;4.90;1.00;;;;;;5051163;28;20658;-80
2024/02/02 00:48:33;;;;;;;18.53;4.23;;;4.90;1.00;;;;;;5045920;28;20238;-80
2024/02/02 00:51:00;;;;;;;18.40;3.93;;;4.90;1.00;;;;;;5051816;28;20329;-80
2024/02/02 00:53:27;;;;;;;20.47;5.10;;;4.90;1.00;;;;;;5042725;28;20294;-80
2024/02/02 00:55:55;;;;;;;15.30;4.53;;;5.00;1.00;;;;;;5049241;28;20214;-80
2024/02/02 00:58:22;;;;;;;16.50;4.50;;;4.90;1.00;;;;;;5051147;28;20206;-80
2024/02/02 01:00:49;;;;;;;18.57;4.70;;;4.90;1.00;;;;;;5049089;28;20231;-80
2024/02/02 01:03:16;;;;;;;16.83;5.40;;;5.00;1.00;;;;;;5047761;28;20252;-80
2024/02/02 01:05:43;;;;;;;18.57;6.23;;;5.00;1.00;;;;;;5050642;28;20219;-80
2024/02/02 01:08:10;;;;;;;15.97;5.07;;;5.00;1.00;;;;;;5049675;28;20253;-80
2024/02/02 01:10:37;;;;;;;28.23;8.17;;;5.00;1.00;;;;;;5047240;28;20282;-80
2024/02/02 01:13:06;;;;;;;22.40;5.70;;;5.00;1.00;;;;;;5048547;28;20206;-80
2024/02/02 01:15:33;;;;;;;17.17;5.37;;;5.00;1.00;;;;;;5047730;28;20254;-81
2024/02/02 01:18:02;;;;;;;20.23;6.80;;;5.00;1.00;;;;;;5046354;28;20223;-80
2024/02/02 01:20:29;;;;;;;16.57;6.90;;;5.10;1.00;;;;;;5052405;28;20226;-80
2024/02/02 01:22:56;;;;;;;17.83;6.77;;;5.10;1.00;;;;;;5050212;28;20540;-80
2024/02/02 01:25:23;;;;;;;20.03;6.83;;;5.10;1.00;;;;;;5049092;28;20342;-80
2024/02/02 01:27:50;;;;;;;24.00;7.83;;;5.10;1.00;;;;;;5050193;28;20657;-80
2024/02/02 01:30:18;;;;;;;24.30;7.00;;;5.10;1.00;;;;;;5046423;28;20207;-80
2024/02/02 01:32:45;;;;;;;20.97;6.80;;;5.10;1.00;;;;;;5050173;28;20357;-80
2024/02/02 01:35:12;;;;;;;19.63;7.47;;;5.10;1.00;;;;;;5047741;28;20724;-80
2024/02/02 01:37:38;;;;;;;16.50;6.93;;;5.10;1.00;;;;;;5048255;28;20231;-80
2024/02/02 01:40:07;;;;;;;25.13;8.03;;;5.10;1.00;;;;;;5055980;28;20211;-80
2024/02/02 01:42:34;;;;;;;20.77;8.23;;;5.10;1.00;;;;;;5052573;28;20286;-80
2024/02/02 01:45:01;;;;;;;22.63;8.37;;;5.10;1.00;;;;;;5054427;28;20279;-80
2024/02/02 01:47:29;;;;;;;20.40;9.00;;;5.10;1.00;;;;;;5053046;28;20681;-80
2024/02/02 01:49:56;;;;;;;25.77;9.67;;;5.10;1.00;;;;;;5053426;28;20301;-80
2024/02/02 01:52:23;;;;;;;24.37;8.03;;;5.20;1.00;;;;;;5051623;28;20207;-80
2024/02/02 01:54:50;;;;;;;24.57;7.97;;;5.10;1.00;;;;;;5046270;28;20203;-80
2024/02/02 01:57:17;;;;;;;21.07;8.23;;;5.20;1.00;;;;;;5048630;28;20258;-80
2024/02/02 01:59:44;;;;;;;21.50;8.60;;;5.20;1.00;;;;;;5053146;28;20294;-80
2024/02/02 02:02:12;;;;;;;21.77;8.27;;;5.10;1.00;;;;;;5050017;28;20206;-80
2024/02/02 02:04:41;;;;;;;21.50;9.07;;;5.10;1.00;;;;;;5053729;28;20223;-80
2024/02/02 02:07:11;;;;;;;19.53;8.10;;;5.10;1.00;;;;;;5052596;28;20277;-80
2024/02/02 02:09:38;;;;;;;19.80;7.53;;;5.20;1.00;;;;;;5051307;28;20235;-80
2024/02/02 02:12:05;;;;;;;27.40;7.87;;;5.10;1.00;;;;;;5053708;28;20287;-80
2024/02/02 02:14:32;;;;;;;21.97;8.47;;;5.10;1.00;;;;;;5053953;28;20202;-80
2024/02/02 02:16:59;;;;;;;24.97;7.77;;;5.10;1.00;;;;;;5050221;28;20249;-80
2024/02/02 02:19:26;;;;;;;22.97;6.90;;;5.10;1.00;;;;;;5051287;28;20290;-80
2024/02/02 02:21:54;;;;;;;22.43;8.13;;;5.10;1.00;;;;;;5053926;28;20207;-80
2024/02/02 02:24:21;;;;;;;25.30;9.57;;;5.10;1.00;;;;;;5051842;28;20287;-80
2024/02/02 02:26:48;;;;;;;22.60;7.43;;;5.10;1.00;;;;;;5051548;28;20223;-80
2024/02/02 02:29:15;;;;;;;23.50;7.33;;;5.10;1.00;;;;;;5054304;28;20221;-80
2024/02/02 02:31:53;;;;;;;21.23;6.67;;;5.10;1.00;;;;;;5050999;28;20214;-80
2024/02/02 02:34:22;;;;;;;19.90;6.27;;;5.10;1.00;;;;;;5051545;28;20209;-80
2024/02/02 02:36:48;;;;;;;24.63;7.67;;;5.00;1.00;;;;;;5050682;28;20302;-80
2024/02/02 02:39:17;;;;;;;19.93;6.57;;;5.00;1.00;;;;;;5050953;28;20222;-80
2024/02/02 02:41:43;;;;;;;19.50;8.53;;;5.00;1.00;;;;;;5051324;28;20275;-80
2024/02/02 02:44:12;;;;;;;19.93;6.57;;;5.00;99.90;;;;;;5053150;28;20282;-80
2024/02/02 02:46:39;;;;;;;17.90;6.20;;;5.00;1.00;;;;;;5052568;28;20235;-81
2024/02/02 02:49:06;;;;;;;20.83;6.53;;;5.00;1.00;;;;;;5053951;28;20293;-80
2024/02/02 02:51:33;;;;;;;17.80;6.20;;;5.00;1.00;;;;;;5053497;28;20307;-80
2024/02/02 02:54:00;;;;;;;18.73;6.03;;;4.90;99.90;;;;;;5045893;28;20312;-80
2024/02/02 02:56:28;;;;;;;24.80;6.77;;;4.80;99.90;;;;;;5053932;28;20284;-79
2024/02/02 02:58:55;;;;;;;13.83;6.20;;;4.90;1.00;;;;;;5051494;28;20227;-80
2024/02/02 03:01:21;;;;;;;23.03;6.23;;;4.90;99.90;;;;;;5052652;28;20630;-80
2024/02/02 03:03:48;;;;;;;21.10;7.07;;;4.90;99.90;;;;;;5050481;28;20622;-80
2024/02/02 03:06:15;;;;;;;20.10;7.67;;;4.90;99.90;;;;;;5045475;28;20224;-80
2024/02/02 03:08:42;;;;;;;25.50;7.80;;;4.90;1.00;;;;;;5051292;28;20497;-80
2024/02/02 03:11:09;;;;;;;24.90;7.13;;;5.00;99.90;;;;;;5046394;28;20290;-80
2024/02/02 03:13:37;;;;;;;20.20;6.53;;;5.00;99.90;;;;;;5048221;28;20207;-80
2024/02/02 03:16:05;;;;;;;20.27;7.90;;;5.00;99.90;;;;;;5042418;28;20406;-80
2024/02/02 03:18:32;;;;;;;22.67;8.17;;;5.00;99.90;;;;;;5049945;28;20203;-80
2024/02/02 03:20:59;;;;;;;24.97;9.10;;;5.10;18.20;;;;;;5049327;28;20267;-80
2024/02/02 03:23:25;;;;;;;23.70;7.93;;;5.20;1.00;;;;;;5051431;28;20226;-80
2024/02/02 03:25:52;;;;;;;18.53;8.00;;;5.20;1.00;;;;;;5052169;28;20776;-80
2024/02/02 03:28:19;;;;;;;21.17;8.63;;;5.30;1.00;;;;;;5050127;28;20294;-80
2024/02/02 03:30:47;;;;;;;25.80;8.60;;;5.20;1.00;;;;;;5050526;28;20282;-80
2024/02/02 03:33:14;;;;;;;23.37;8.73;;;5.20;1.00;;;;;;5054456;28;20286;-80
2024/02/02 03:35:41;;;;;;;23.47;9.13;;;5.20;1.00;;;;;;5050570;28;20257;-80
2024/02/02 03:38:08;;;;;;;24.03;8.97;;;5.20;1.00;;;;;;5052999;28;20206;-80
2024/02/02 03:40:35;;;;;;;22.10;8.90;;;5.20;1.00;;;;;;5049904;28;20746;-80
2024/02/02 03:43:02;;;;;;;26.97;9.63;;;5.30;1.00;;;;;;5047227;28;20198;-80
2024/02/02 03:45:29;;;;;;;25.17;8.97;;;5.30;1.00;;;;;;5057466;28;20755;-80
2024/02/02 03:47:59;;;;;;;24.17;10.17;;;5.30;1.00;;;;;;5059466;28;20345;-80
2024/02/02 03:50:26;;;;;;;26.67;10.03;;;5.30;1.00;;;;;;5052447;28;20235;-80
2024/02/02 03:52:55;;;;;;;26.50;9.87;;;5.30;1.00;;;;;;5045071;28;20677;-80
2024/02/02 03:55:21;;;;;;;24.87;10.07;;;5.30;1.00;;;;;;5048548;28;20669;-80
2024/02/02 03:57:48;;;;;;;23.87;10.03;;;5.30;1.00;;;;;;5051042;28;20319;-80
2024/02/02 04:00:16;;;;;;;27.90;10.57;;;5.30;1.00;;;;;;5051388;28;20624;-80
2024/02/02 04:02:45;;;;;;;25.60;11.37;;;5.40;1.00;;;;;;5052049;28;20230;-80
2024/02/02 04:05:15;;;;;;;22.77;10.50;;;5.40;99.90;;;;;;5042395;28;20211;-80
2024/02/02 04:07:42;;;;;;;29.00;11.83;;;5.40;99.90;;;;;;5044801;28;20239;-80
2024/02/02 04:10:09;;;;;;;31.20;11.47;;;5.40;99.90;;;;;;5045055;28;20644;-80
2024/02/02 04:12:37;;;;;;;28.63;13.27;;;5.40;99.90;;;;;;5047417;28;20205;-80
2024/02/02 04:15:05;;;;;;;31.40;12.50;;;5.40;99.90;;;;;;5045633;28;20199;-80
2024/02/02 04:17:32;;;;;;;25.77;12.83;;;5.40;99.90;;;;;;5052343;28;20629;-80
2024/02/02 04:19:59;;;;;;;27.10;11.50;;;5.40;57.50;;;;;;5050481;28;20584;-80
2024/02/02 04:22:27;;;;;;;30.30;12.23;;;5.40;1.00;;;;;;5049389;28;20283;-81
2024/02/02 04:24:54;;;;;;;29.77;12.40;;;5.40;2.10;;;;;;5056039;28;20333;-80
2024/02/02 04:27:21;;;;;;;28.33;13.10;;;5.40;1.00;;;;;;5048848;28;20620;-80
2024/02/02 04:29:48;;;;;;;31.00;14.23;;;5.40;1.00;;;;;;5051456;28;20203;-80
2024/02/02 04:32:15;;;;;;;34.30;14.33;;;5.50;1.00;;;;;;5050167;28;20717;-79
2024/02/02 04:34:41;;;;;;;33.43;13.33;;;5.50;1.00;;;;;;5049908;28;20250;-79
2024/02/02 04:37:08;;;;;;;27.67;13.10;;;5.60;1.00;;;;;;5049816;28;20879;-80
2024/02/02 04:39:36;;;;;;;30.17;13.67;;;5.50;1.00;;;;;;5048160;28;20299;-79
2024/02/02 04:42:04;;;;;;;27.50;14.33;;;5.50;1.00;;;;;;5051003;28;20282;-80
2024/02/02 04:44:31;;;;;;;28.00;13.47;;;5.60;99.90;;;;;;5049669;28;20219;-80
2024/02/02 04:46:58;;;;;;;27.60;13.17;;;5.50;99.90;;;;;;5051128;28;20306;-80
2024/02/02 04:49:25;;;;;;;34.37;15.30;;;5.50;99.90;;;;;;5044588;28;20234;-80
2024/02/02 04:51:52;;;;;;;29.40;15.50;;;5.60;99.90;;;;;;5037849;28;20246;-80
2024/02/02 04:54:19;;;;;;;28.80;14.33;;;5.50;99.90;;;;;;5040654;28;20263;-80
2024/02/02 04:56:47;;;;;;;30.17;14.10;;;5.60;19.20;;;;;;5041418;28;20227;-81
2024/02/02 04:59:14;;;;;;;28.73;14.70;;;5.60;1.00;;;;;;5045837;28;20234;-80
2024/02/02 05:01:40;;;;;;;29.63;13.47;;;5.60;1.00;;;;;;5049512;28;20712;-80
2024/02/02 05:04:07;;;;;;;29.53;13.77;;;5.60;1.00;;;;;;5043980;28;20234;-80
2024/02/02 05:06:34;;;;;;;30.60;13.70;;;5.60;1.00;;;;;;5039754;28;20227;-80
2024/02/02 05:09:01;;;;;;;27.23;12.53;;;5.60;1.00;;;;;;5048136;28;20207;-80
2024/02/02 05:11:28;;;;;;;29.63;13.40;;;5.60;1.00;;;;;;5046014;28;20640;-79
2024/02/02 05:13:56;;;;;;;31.83;12.90;;;5.70;1.00;;;;;;5049449;28;20203;-79
2024/02/02 05:16:23;;;;;;;30.20;15.87;;;5.70;1.00;;;;;;5043228;28;20291;-80
2024/02/02 05:18:50;;;;;;;26.87;12.00;;;5.70;1.00;;;;;;5045264;28;20294;-80
2024/02/02 05:21:17;;;;;;;26.13;12.33;;;5.70;1.00;;;;;;5045441;28;20211;-81
2024/02/02 05:23:44;;;;;;;25.87;11.87;;;5.70;1.00;;;;;;5048514;28;20654;-80
2024/02/02 05:26:10;;;;;;;21.47;10.37;;;5.80;1.00;;;;;;5049753;28;20229;-80
2024/02/02 05:28:37;;;;;;;22.73;9.70;;;5.70;1.00;;;;;;5044709;28;20211;-79
2024/02/02 05:31:06;;;;;;;21.40;9.87;;;5.80;99.90;;;;;;5047595;28;20643;-80
2024/02/02 05:33:33;;;;;;;22.07;9.57;;;5.80;99.90;;;;;;5046222;28;20199;-80
2024/02/02 05:36:01;;;;;;;27.00;9.43;;;5.80;99.90;;;;;;5049620;28;20262;-81
2024/02/02 05:38:27;;;;;;;21.20;8.33;;;5.80;99.90;;;;;;5046513;28;20203;-79
2024/02/02 05:40:54;;;;;;;17.80;7.77;;;5.80;99.90;;;;;;5044089;28;20297;-79
2024/02/02 05:43:21;;;;;;;19.47;7.93;;;5.80;99.90;;;;;;5045136;28;20298;-78
2024/02/02 05:45:48;;;;;;;22.67;7.70;;;5.80;99.90;;;;;;5047590;28;20663;-79
2024/02/02 05:48:16;;;;;;;18.17;7.60;;;5.80;1.00;;;;;;5049127;28;20199;-78
2024/02/02 05:50:44;;;;;;;21.87;8.00;;;5.80;99.90;;;;;;5048101;28;20294;-79
2024/02/02 05:53:11;;;;;;;20.10;7.63;;;5.80;99.90;;;;;;5049511;28;20199;-79
2024/02/02 05:55:37;;;;;;;15.90;7.73;;;5.80;99.90;;;;;;5041878;28;20238;-79
2024/02/02 05:58:05;;;;;;;18.30;7.00;;;5.80;99.90;;;;;;5041157;28;20301;-79
2024/02/02 06:00:32;;;;;;;18.60;7.37;;;5.80;99.90;;;;;;5039589;28;20662;-79
2024/02/02 06:02:59;;;;;;;22.23;8.70;;;5.90;99.90;;;;;;5041269;28;20294;-79
2024/02/02 06:05:27;;;;;;;21.00;7.83;;;5.80;99.90;;;;;;5036615;28;20637;-79
2024/02/02 06:07:54;;;;;;;19.13;8.53;;;5.80;1.00;;;;;;5041887;28;20235;-80
2024/02/02 06:10:21;;;;;;;22.07;8.10;;;5.80;1.00;;;;;;5045383;28;20219;-80
2024/02/02 06:12:48;;;;;;;20.17;7.63;;;5.80;1.00;;;;;;5047557;28;20234;-80
2024/02/02 06:15:14;;;;;;;20.30;8.10;;;5.90;1.00;;;;;;5043611;28;20246;-80
2024/02/02 06:17:41;;;;;;;19.67;7.63;;;5.80;1.00;;;;;;5041913;28;20310;-79
2024/02/02 06:20:09;;;;;;;20.40;8.17;;;5.80;1.00;;;;;;5041766;28;20199;-79
2024/02/02 06:22:37;;;;;;;28.33;10.90;;;5.70;1.00;;;;;;5047996;28;20222;-79
2024/02/02 06:25:05;;;;;;;22.97;9.20;;;5.80;1.00;;;;;;5050146;28;20283;-79
2024/02/02 06:27:32;;;;;;;25.07;9.77;;;5.70;1.00;;;;;;5046432;28;20793;-79
2024/02/02 06:30:00;;;;;;;24.27;9.20;;;5.70;1.00;;;;;;5046143;28;20234;-79
2024/02/02 06:32:27;;;;;;;22.60;9.37;;;5.70;1.00;;;;;;5047154;28;20258;-79
2024/02/02 06:34:56;;;;;;;23.03;8.80;;;5.70;1.00;;;;;;5050819;28;20210;-80
2024/02/02 06:37:23;;;;;;;22.63;9.10;;;5.70;1.00;;;;;;5047692;28;20310;-79
2024/02/02 06:39:53;;;;;;;20.57;8.77;;;5.60;1.00;;;;;;5052296;28;20715;-78
2024/02/02 06:42:20;;;;;;;22.83;9.13;;;5.60;99.90;;;;;;5050794;28;20234;-79
2024/02/02 06:44:48;;;;;;;22.97;8.77;;;5.60;99.90;;;;;;5046845;28;20299;-80
2024/02/02 06:47:16;;;;;;;18.90;8.27;;;5.60;56.70;;;;;;5047153;28;20227;-79
2024/02/02 06:49:43;;;;;;;22.97;8.30;;;5.70;1.00;;;;;;5050256;28;20306;-79
2024/02/02 06:52:10;;;;;;;24.90;9.67;;;5.70;1.00;;;;;;5046222;28;20205;-80
2024/02/02 06:54:37;;;;;;;22.43;8.23;;;5.70;1.00;;;;;;5050159;28;20322;-79
2024/02/02 06:57:05;;;;;;;26.07;8.87;;;5.70;1.00;;;;;;5050355;28;20271;-80
2024/02/02 06:59:32;;;;;;;24.53;8.63;;;5.70;1.00;;;;;;5051936;28;20218;-80
2024/02/02 07:02:00;;;;;;;22.90;9.23;;;5.70;1.00;;;;;;5042789;28;20242;-79
2024/02/02 07:04:27;;;;;;;20.13;8.77;;;5.80;1.00;;;;;;5047068;28;20290;-80
2024/02/02 07:06:53;;;;;;;23.40;10.23;;;5.80;1.00;;;;;;5037457;28;20235;-81
2024/02/02 07:09:29;;;;;;;24.87;10.80;;;5.80;1.00;;;;;;5042663;28;20295;-79
2024/02/02 07:11:59;;;;;;;21.23;9.67;;;5.80;1.00;;;;;;5043488;28;20609;-80
2024/02/02 07:14:45;;;;;;;23.60;10.03;;;5.80;1.00;;;;;;5054356;28;20630;-80
2024/02/02 07:17:31;;;;;;;25.20;10.27;;;5.90;1.00;;;;;;5045236;28;20219;-80
2024/02/02 07:19:57;;;;;;;23.33;9.47;;;5.90;1.00;;;;;;5045014;28;20408;-81
2024/02/02 07:22:34;;;;;;;21.70;9.40;;;5.90;1.00;;;;;;5050208;28;20725;-81
2024/02/02 07:25:01;;;;;;;21.30;9.30;;;5.90;1.00;;;;;;5050434;28;20202;-80
2024/02/02 07:27:48;;;;;;;17.77;8.17;;;5.80;1.00;;;;;;5047386;28;20706;-81
2024/02/02 07:30:51;;;;;;;25.83;8.10;;;5.90;1.00;;;;;;5047700;28;20202;-80
2024/02/02 07:33:23;;;;;;;23.27;8.83;;;5.90;1.00;;;;;;5052251;28;20234;-81
2024/02/02 07:35:50;;;;;;;17.37;7.93;;;5.90;1.00;;;;;;5048659;28;20206;-81
2024/02/02 07:38:48;;;;;;;24.43;8.10;;;5.90;1.00;;;;;;5055557;28;20202;-80
2024/02/02 07:41:16;;;;;;;21.20;7.10;;;5.90;1.00;;;;;;5043721;28;20195;-80
2024/02/02 07:43:44;;;;;;;22.80;7.73;;;6.00;1.00;;;;;;5057451;28;20567;-80
2024/02/02 07:46:12;;;;;;;19.30;7.60;;;6.00;1.00;;;;;;5057997;28;20235;-80
2024/02/02 07:48:40;;;;;;;18.60;6.33;;;6.00;1.00;;;;;;5056220;28;20641;-79
2024/02/02 07:51:07;;;;;;;21.37;6.87;;;6.20;1.00;;;;;;5054307;28;20615;-81
2024/02/02 07:53:34;;;;;;;17.03;6.73;;;6.10;1.00;;;;;;5054911;28;20270;-81
2024/02/02 07:56:01;;;;;;;17.37;5.77;;;6.10;1.00;;;;;;5053953;28;20299;-82
2024/02/02 07:58:28;;;;;;;16.80;5.67;;;6.10;1.00;;;;;;5052853;28;20624;-78
2024/02/02 08:00:55;;;;;;;14.17;4.67;;;6.20;99.90;;;;;;5053631;28;20266;-79
2024/02/02 08:03:24;;;;;;;17.53;5.93;;;6.20;99.90;;;;;;5051353;28;20245;-80
2024/02/02 08:05:51;;;;;;;19.67;5.83;;;6.30;99.90;;;;;;5053421;28;20239;-80
2024/02/02 08:08:18;;;;;;;16.40;5.30;;;6.30;99.90;;;;;;5053776;28;20218;-80
2024/02/02 08:10:46;;;;;;;14.87;5.63;;;6.40;99.90;;;;;;5047542;28;20237;-79
2024/02/02 08:13:14;;;;;;;20.13;5.73;;;6.40;99.90;;;;;;5054832;28;20733;-80
2024/02/02 08:15:41;;;;;;;17.53;4.60;;;6.40;99.90;;;;;;5046965;28;20207;-81
2024/02/02 08:18:08;;;;;;;16.97;4.90;;;6.50;99.90;;;;;;5052218;28;20653;-79
2024/02/02 08:20:37;;;;;;;18.23;5.47;;;6.50;99.90;;;;;;5053334;28;20282;-80
2024/02/02 08:23:05;;;;;;;17.00;5.23;;;6.50;99.90;;;;;;5048176;28;20222;-80
2024/02/02 08:25:32;;;;;;;16.13;4.30;;;6.50;99.90;;;;;;5053536;28;20245;-81
2024/02/02 08:27:59;;;;;;;17.27;4.67;;;6.50;99.90;;;;;;5051120;28;20260;-79
2024/02/02 08:30:26;;;;;;;15.73;4.57;;;6.50;99.90;;;;;;5051997;28;20213;-80
2024/02/02 08:32:53;;;;;;;14.20;4.53;;;6.50;99.90;;;;;;5058805;28;20713;-80
2024/02/02 08:35:21;;;;;;;15.47;3.87;;;6.60;99.90;;;;;;5053609;28;20566;-80
2024/02/02 08:37:52;;;;;;;12.77;4.10;;;6.60;99.90;;;;;;5053733;28;20223;-80
2024/02/02 08:40:26;;;;;;;15.60;4.17;;;6.60;99.90;;;;;;5055805;28;20294;-80
2024/02/02 08:42:53;;;;;;;15.23;4.13;;;6.60;99.90;;;;;;5051478;28;20217;-79
2024/02/02 08:46:03;;;;;;;16.57;4.10;;;6.70;1.00;;;;;;5057350;28;20203;-80
2024/02/02 08:48:52;;;;;;;16.83;4.33;;;6.70;1.00;;;;;;5051938;28;20590;-80
2024/02/02 08:51:47;;;;;;;19.17;4.83;;;6.70;1.00;;;;;;5053608;28;20207;-80
2024/02/02 08:54:38;;;;;;;16.27;4.53;;;6.90;1.00;;;;;;5050633;28;20213;-81
2024/02/02 08:57:44;;;;;;;12.83;4.47;;;7.00;1.00;;;;;;5045522;28;20239;-80
2024/02/02 09:00:18;;;;;;;17.67;6.47;;;7.10;1.00;;;;;;5042931;28;20203;-80
2024/02/02 09:02:53;;;;;;;13.37;4.57;;;7.10;1.00;;;;;;5048695;28;20578;-80
2024/02/02 09:05:21;;;;;;;15.27;4.93;;;7.20;1.00;;;;;;5045812;28;20256;-80
2024/02/02 09:07:52;;;;;;;16.47;4.50;;;7.30;1.00;;;;;;5055270;28;20701;-80
2024/02/02 09:10:51;;;;;;;16.83;5.00;;;7.30;1.00;;;;;;5048858;28;20238;-81
2024/02/02 09:13:24;;;;;;;14.97;5.03;;;7.40;1.00;;;;;;5024414;28;20298;-79
2024/02/02 09:15:51;;;;;;;14.20;5.00;;;7.40;1.00;;;;;;5044256;28;20644;-81
2024/02/02 09:18:26;;;;;;;13.63;4.73;;;7.50;1.00;;;;;;5039642;28;20227;-82
2024/02/02 09:20:53;;;;;;;13.80;4.80;;;7.50;1.00;;;;;;5050702;28;20203;-80
2024/02/02 09:23:20;;;;;;;12.30;5.10;;;7.60;1.00;;;;;;5043713;28;20235;-81
2024/02/02 09:25:48;;;;;;;17.20;5.13;;;7.70;1.00;;;;;;5042803;28;20283;-80
2024/02/02 09:28:38;;;;;;;14.77;5.23;;;7.60;1.00;;;;;;5046630;28;20226;-81
2024/02/02 09:31:06;;;;;;;16.90;6.17;;;7.50;1.00;;;;;;5053160;28;20245;-82
2024/02/02 09:33:45;;;;;;;15.50;5.97;;;7.60;1.00;;;;;;5043382;28;20220;-80
2024/02/02 09:36:12;;;;;;;16.90;5.87;;;7.50;1.00;;;;;;5051423;28;20254;-81
2024/02/02 09:38:39;;;;;;;16.73;6.50;;;7.50;1.00;;;;;;5055055;28;20231;-80
2024/02/02 09:41:54;;;;;;;17.37;5.40;;;7.40;1.00;;;;;;5053913;28;20285;-81
2024/02/02 09:44:46;;;;;;;18.77;6.23;;;7.40;1.00;;;;;;5045077;28;20713;-81
2024/02/02 09:47:36;;;;;;;16.90;5.70;;;7.40;1.00;;;;;;5052599;28;20222;-81
2024/02/02 09:50:25;;;;;;;11.97;4.93;;;7.50;1.00;;;;;;5056137;28;20206;-82
2024/02/02 09:53:24;;;;;;;18.97;6.77;;;7.50;1.00;;;;;;5054364;28;20211;-81
2024/02/02 09:56:01;;;;;;;19.20;6.30;;;7.40;1.00;;;;;;5054426;28;20201;-80
2024/02/02 09:58:37;;;;;;;18.33;6.30;;;7.40;1.00;;;;;;5050950;28;20194;-80
2024/02/02 10:01:15;;;;;;;15.53;6.40;;;7.40;1.00;;;;;;5049372;28;20204;-80
2024/02/02 10:03:52;;;;;;;16.57;6.67;;;7.40;1.00;;;;;;5047542;28;20222;-82
2024/02/02 10:06:30;;;;;;;19.47;7.20;;;7.50;1.00;;;;;;5048519;28;20249;-81
2024/02/02 10:09:28;;;;;;;18.97;6.67;;;7.50;1.00;;;;;;5049816;28;20246;-80
2024/02/02 10:12:11;;;;;;;17.17;5.93;;;7.50;1.00;;;;;;5048481;28;20217;-81
2024/02/02 10:15:19;;;;;;;23.87;7.70;;;7.50;1.00;;;;;;5052335;28;20491;-81
2024/02/02 10:18:12;;;;;;;15.47;5.90;;;7.50;1.00;;;;;;5045505;28;20643;-80
2024/02/02 10:20:46;;;;;;;18.23;6.90;;;7.50;1.00;;;;;;5049512;28;20294;-81
2024/02/02 10:23:52;;;;;;;18.50;6.30;;;7.50;1.00;;;;;;5053620;28;20206;-81
2024/02/02 10:26:36;;;;;;;19.40;7.00;;;7.50;1.00;;;;;;5028406;28;20309;-82
2024/02/02 10:29:13;;;;;;;23.70;7.20;;;7.50;1.00;;;;;;5044456;28;20646;-79
2024/02/02 10:31:59;;;;;;;15.10;7.13;;;7.50;1.00;;;;;;5052120;28;20293;-82
2024/02/02 10:34:41;;;;;;;18.23;6.90;;;7.50;1.00;;;;;;5050507;28;20716;-83
2024/02/02 10:37:23;;;;;;;17.03;6.47;;;7.50;1.00;;;;;;5056930;28;20309;-81
2024/02/02 10:40:10;;;;;;;15.03;6.03;;;7.50;1.00;;;;;;5052976;28;20649;-80
2024/02/02 10:42:52;;;;;;;19.07;7.50;;;7.60;1.00;;;;;;5050146;28;20239;-81
2024/02/02 10:45:30;;;;;;;17.87;7.57;;;7.60;1.00;;;;;;5057845;28;20290;-82
2024/02/02 10:48:14;;;;;;;22.93;8.00;;;7.70;1.00;;;;;;5051024;28;20241;-81
2024/02/02 10:50:49;;;;;;;19.63;7.23;;;7.60;1.00;;;;;;5049277;28;20207;-81
2024/02/02 10:53:30;;;;;;;21.40;7.50;;;7.50;1.00;;;;;;5048672;28;20645;-81
2024/02/02 10:56:11;;;;;;;15.77;6.77;;;7.50;1.00;;;;;;5044282;28;20215;-81
2024/02/02 10:58:51;;;;;;;18.17;6.93;;;7.60;1.00;;;;;;5042100;28;20568;-80
2024/02/02 11:01:28;;;;;;;16.60;7.47;;;7.60;1.00;;;;;;5046003;28;20717;-82
2024/02/02 11:04:02;;;;;;;18.87;7.33;;;7.70;1.00;;;;;;5046784;28;20274;-81
2024/02/02 11:06:43;;;;;;;22.23;8.13;;;7.60;1.00;;;;;;5047291;28;20232;-80
2024/02/02 11:09:23;;;;;;;14.87;7.00;;;7.60;1.00;;;;;;5048578;28;20302;-81
2024/02/02 11:12:07;;;;;;;14.03;6.17;;;7.70;1.00;;;;;;5047095;28;20262;-80
2024/02/02 11:14:42;;;;;;;19.90;6.13;;;7.70;1.00;;;;;;5047585;28;20202;-80
2024/02/02 11:17:19;;;;;;;18.63;7.73;;;7.70;1.00;;;;;;5045216;28;20653;-79
2024/02/02 11:20:01;;;;;;;19.87;6.83;;;7.70;1.00;;;;;;5049847;28;20210;-81
2024/02/02 11:22:37;;;;;;;21.60;7.30;;;7.70;1.00;;;;;;5051358;28;20200;-81
2024/02/02 11:25:13;;;;;;;18.00;7.37;;;7.80;1.00;;;;;;5053284;28;20214;-82
2024/02/02 11:27:48;;;;;;;19.67;7.40;;;7.80;1.00;;;;;;5045397;28;20261;-82
2024/02/02 11:30:29;;;;;;;20.27;7.60;;;7.70;1.00;;;;;;5046237;28;20725;-80
2024/02/02 11:33:19;;;;;;;21.20;7.30;;;7.70;1.00;;;;;;5052200;28;20689;-81
2024/02/02 11:35:57;;;;;;;18.70;7.40;;;7.80;1.00;;;;;;5045516;28;20206;-81
2024/02/02 11:38:41;;;;;;;17.87;8.23;;;7.80;1.00;;;;;;5048727;28;20219;-81
2024/02/02 11:41:18;;;;;;;19.67;7.83;;;7.80;1.00;;;;;;5050201;28;20195;-80
2024/02/02 11:43:46;;;;;;;15.60;7.70;;;7.80;1.00;;;;;;5048352;28;20726;-83
2024/02/02 11:46:15;;;;;;;21.40;8.07;;;7.90;1.00;;;;;;5051494;28;20219;-82
2024/02/02 11:48:43;;;;;;;17.80;7.43;;;7.90;1.00;;;;;;5051147;28;20223;-81
2024/02/02 11:51:12;;;;;;;20.47;7.33;;;8.00;1.00;;;;;;5052878;28;20206;-78
2024/02/02 11:53:45;;;;;;;20.07;6.90;;;7.90;1.00;;;;;;5046725;28;20289;-82
2024/02/02 11:56:17;;;;;;;21.67;7.07;;;7.90;1.00;;;;;;5038905;28;20745;-80
2024/02/02 11:58:51;;;;;;;21.87;7.10;;;7.90;1.00;;;;;;5047101;28;20725;-82
2024/02/02 12:01:28;;;;;;;17.40;7.13;;;8.00;1.00;;;;;;5045839;28;20239;-79
2024/02/02 12:04:17;;;;;;;18.17;7.47;;;8.00;1.00;;;;;;5050919;28;20213;-81
2024/02/02 12:06:51;;;;;;;18.73;8.23;;;8.00;1.00;;;;;;5045923;28;20254;-81
2024/02/02 12:09:25;;;;;;;20.53;8.07;;;8.00;1.00;;;;;;5049258;28;20294;-80
2024/02/02 12:11:54;;;;;;;21.03;7.80;;;8.00;1.00;;;;;;5050957;28;20683;-80
2024/02/02 12:14:26;;;;;;;22.20;9.33;;;8.00;1.00;;;;;;5048936;28;20203;-80
2024/02/02 12:16:53;;;;;;;16.17;8.00;;;8.00;1.00;;;;;;5048453;28;20305;-80
2024/02/02 12:19:20;;;;;;;21.53;8.37;;;8.10;1.00;;;;;;5044642;28;20196;-81
2024/02/02 12:21:47;;;;;;;19.63;8.03;;;8.10;1.00;;;;;;5052295;28;20329;-80
2024/02/02 12:24:16;;;;;;;19.00;7.63;;;8.10;1.00;;;;;;5055185;28;20302;-83
2024/02/02 12:26:46;;;;;;;25.00;8.33;;;8.20;1.00;;;;;;5045144;28;20313;-80
2024/02/02 12:29:14;;;;;;;24.67;9.23;;;8.20;1.00;;;;;;5055468;28;20496;-81
2024/02/02 12:31:41;;;;;;;18.87;7.33;;;8.30;1.00;;;;;;5054709;28;20570;-81
2024/02/02 12:34:08;;;;;;;17.60;7.93;;;8.40;1.00;;;;;;5051257;28;20208;-80
2024/02/02 12:36:35;;;;;;;22.23;8.60;;;8.40;1.00;;;;;;5048161;28;20322;-82
2024/02/02 12:39:05;;;;;;;21.37;8.63;;;8.40;1.00;;;;;;5044041;28;20234;-81
2024/02/02 12:41:32;;;;;;;22.93;10.27;;;8.40;1.00;;;;;;5045072;28;20212;-80
2024/02/02 12:44:01;;;;;;;19.60;8.03;;;8.40;1.00;;;;;;5045350;28;20599;-80
2024/02/02 12:46:28;;;;;;;17.17;8.43;;;8.50;1.00;;;;;;5041451;28;20219;-80
2024/02/02 12:48:55;;;;;;;21.53;9.23;;;8.60;1.00;;;;;;5045523;28;20242;-82
2024/02/02 12:51:22;;;;;;;21.10;9.07;;;8.70;1.00;;;;;;5055137;28;20202;-83
2024/02/02 12:53:49;;;;;;;20.10;9.40;;;8.70;1.00;;;;;;5042232;28;20354;-81
2024/02/02 12:56:17;;;;;;;20.63;9.00;;;8.90;1.00;;;;;;5043975;28;20291;-82
2024/02/02 12:58:44;;;;;;;20.93;8.67;;;8.90;1.00;;;;;;5042135;28;20226;-82
2024/02/02 13:01:12;;;;;;;21.63;8.53;;;8.80;1.00;;;;;;5045668;28;20202;-80
2024/02/02 13:03:39;;;;;;;22.83;8.63;;;8.90;1.00;;;;;;5044919;28;20230;-82
2024/02/02 13:06:07;;;;;;;22.53;9.07;;;9.00;1.00;;;;;;5048677;28;20222;-82
2024/02/02 13:08:37;;;;;;;18.47;8.70;;;9.10;1.00;;;;;;5050499;28;20597;-80
2024/02/02 13:11:06;;;;;;;18.83;9.43;;;9.20;1.00;;;;;;5046818;28;20207;-82
2024/02/02 13:13:36;;;;;;;25.70;9.43;;;9.20;1.00;;;;;;5048203;28;20215;-81